createdAt,value
2018-11-22T12:18:09.405Z,71.47
2018-11-22T12:20:36.827Z,71.63
2018-11-22T12:23:04.776Z,72.15
2018-11-22T12:25:32.232Z,72.21
2018-11-22T12:27:59.659Z,72.05
2018-11-22T12:30:27.186Z,72.21
2018-11-22T12:32:54.727Z,72.34
2018-11-22T12:35:22.168Z,72.28
2018-11-22T12:37:49.605Z,71.93
2018-11-22T12:40:17.004Z,71.93
2018-11-22T12:42:44.572Z,71.75
2018-11-22T12:45:12.749Z,71.46
2018-11-22T12:47:40.230Z,71.03
2018-11-22T12:50:07.658Z,71.01
2018-11-22T12:52:36.019Z,71.30
2018-11-22T12:55:03.728Z,71.34
2018-11-22T12:57:31.167Z,71.04
2018-11-22T12:59:58.577Z,70.90
2018-11-22T13:02:26.016Z,70.72
2018-11-22T13:04:53.441Z,70.80
2018-11-22T13:07:20.855Z,70.98
2018-11-22T13:09:48.274Z,70.89
2018-11-22T13:12:15.728Z,70.95
2018-11-22T13:14:43.203Z,70.84
2018-11-22T13:17:10.682Z,70.83
2018-11-22T13:19:38.164Z,70.92
2018-11-22T13:22:05.625Z,71.01
2018-11-22T13:24:33.049Z,70.94
2018-11-22T13:27:00.476Z,70.77
2018-11-22T13:29:28.061Z,70.53
2018-11-22T13:31:55.473Z,70.50
2018-11-22T13:34:23.057Z,70.40
2018-11-22T13:36:50.483Z,70.39
2018-11-22T13:39:17.896Z,70.90
2018-11-22T13:41:45.299Z,71.38
2018-11-22T13:44:12.773Z,72.17
2018-11-22T13:46:40.210Z,71.86
2018-11-22T13:49:08.070Z,71.27
2018-11-22T13:51:36.729Z,70.99
2018-11-22T13:54:03.410Z,71.21
2018-11-22T13:56:30.932Z,71.01
2018-11-22T13:58:58.407Z,70.81
2018-11-22T14:01:25.795Z,70.85
2018-11-22T14:03:53.252Z,70.81
2018-11-22T14:06:20.757Z,70.92
2018-11-22T14:08:48.171Z,71.08
2018-11-22T14:11:15.783Z,71.10
2018-11-22T14:13:43.189Z,70.92
2018-11-22T14:16:10.631Z,70.83
2018-11-22T14:18:38.055Z,71.46
2018-11-22T14:21:05.511Z,71.91
2018-11-22T14:23:32.933Z,72.28
2018-11-22T14:26:00.350Z,72.36
2018-11-22T14:28:27.778Z,72.64
2018-11-22T14:30:55.179Z,73.15
2018-11-22T14:33:22.597Z,73.18
2018-11-22T14:35:50.012Z,72.89
2018-11-22T14:38:17.892Z,73.10
2018-11-22T14:40:45.311Z,73.32
2018-11-22T14:43:12.937Z,73.39
2018-11-22T14:45:41.254Z,73.64
2018-11-22T14:48:08.667Z,73.61
2018-11-22T14:50:36.165Z,73.56
2018-11-22T14:53:03.698Z,73.56
2018-11-22T14:55:31.133Z,73.47
2018-11-22T14:57:58.805Z,73.50
2018-11-22T15:00:26.224Z,73.51
2018-11-22T15:02:53.984Z,73.44
2018-11-22T15:05:21.618Z,73.63
2018-11-22T15:07:49.070Z,74.02
2018-11-22T15:10:16.545Z,74.08
2018-11-22T15:12:43.946Z,74.20
2018-11-22T15:15:11.387Z,74.28
2018-11-22T15:17:38.808Z,74.33
2018-11-22T15:20:06.249Z,74.17
2018-11-22T15:22:33.691Z,74.00
2018-11-22T15:25:01.161Z,74.04
2018-11-22T15:27:28.566Z,74.21
2018-11-22T15:29:55.968Z,74.83
2018-11-22T15:32:23.906Z,75.05
2018-11-22T15:34:51.316Z,75.12
2018-11-22T15:37:18.764Z,75.05
2018-11-22T15:39:46.228Z,74.97
2018-11-22T15:42:13.643Z,74.90
2018-11-22T15:44:41.463Z,74.88
2018-11-22T15:47:08.870Z,74.77
2018-11-22T15:49:36.290Z,74.95
2018-11-22T15:52:03.705Z,75.11
2018-11-22T15:54:31.261Z,75.00
2018-11-22T15:56:58.681Z,74.91
2018-11-22T15:59:26.420Z,75.10
2018-11-22T16:01:53.849Z,75.13
2018-11-22T16:04:21.258Z,75.32
2018-11-22T16:06:48.685Z,75.68
2018-11-22T16:09:16.337Z,76.12
2018-11-22T16:11:43.784Z,76.51
2018-11-22T16:14:11.208Z,76.41
2018-11-22T16:16:38.657Z,76.13
2018-11-22T16:19:06.323Z,76.07
2018-11-22T16:21:33.727Z,75.85
2018-11-22T16:24:01.148Z,75.83
2018-11-22T16:26:28.546Z,75.81
2018-11-22T16:28:55.957Z,75.63
2018-11-22T16:31:23.452Z,75.69
2018-11-22T16:33:51.080Z,75.68
2018-11-22T16:36:18.478Z,75.97
2018-11-22T16:38:46.174Z,75.86
2018-11-22T16:41:13.752Z,76.04
2018-11-22T16:43:41.175Z,76.68
2018-11-22T16:46:08.603Z,76.70
2018-11-22T16:48:36.092Z,77.12
2018-11-22T16:51:05.361Z,77.42
2018-11-22T16:53:33.234Z,77.55
2018-11-22T16:56:00.649Z,77.60
2018-11-22T16:58:28.879Z,77.32
2018-11-22T17:00:56.316Z,76.81
2018-11-22T17:03:23.717Z,76.67
2018-11-22T17:05:51.141Z,76.72
2018-11-22T17:08:18.628Z,76.58
2018-11-22T17:10:46.103Z,76.46
2018-11-22T17:13:13.544Z,76.50
2018-11-22T17:15:40.973Z,76.58
2018-11-22T17:18:08.431Z,76.70
2018-11-22T17:20:36.088Z,76.48
2018-11-22T17:23:03.601Z,76.54
2018-11-22T17:25:31.033Z,76.41
2018-11-22T17:27:58.563Z,76.61
2018-11-22T17:30:26.009Z,76.54
2018-11-22T17:32:53.457Z,76.62
2018-11-22T17:35:20.870Z,76.51
2018-11-22T17:37:48.289Z,76.20
2018-11-22T17:40:15.741Z,76.70
2018-11-22T17:42:43.282Z,76.89
2018-11-22T17:45:10.820Z,76.80
2018-11-22T17:47:38.263Z,76.60
2018-11-22T17:50:07.308Z,76.75
2018-11-22T17:52:34.717Z,76.91
2018-11-22T17:55:02.123Z,76.98
2018-11-22T17:57:29.660Z,77.00
2018-11-22T17:59:58.044Z,76.98
2018-11-22T18:02:25.451Z,76.69
2018-11-22T18:04:52.871Z,76.97
2018-11-22T18:07:20.310Z,76.87
2018-11-22T18:09:47.773Z,76.66
2018-11-22T18:12:15.195Z,76.62
2018-11-22T18:14:42.629Z,76.77
2018-11-22T18:17:10.188Z,76.76
2018-11-22T18:19:38.302Z,76.75
2018-11-22T18:22:05.723Z,76.81
2018-11-22T18:24:33.495Z,76.85
2018-11-22T18:27:00.989Z,76.59
2018-11-22T18:29:28.376Z,76.48
2018-11-22T18:31:55.798Z,76.41
2018-11-22T18:34:23.206Z,76.44
2018-11-22T18:36:50.615Z,76.87
2018-11-22T18:39:19.012Z,77.15
2018-11-22T18:41:47.203Z,77.24
2018-11-22T18:44:14.623Z,77.27
2018-11-22T18:46:42.240Z,77.24
2018-11-22T18:49:09.871Z,77.18
2018-11-22T18:51:37.312Z,77.32
2018-11-22T18:54:04.753Z,77.37
2018-11-22T18:56:36.978Z,77.40
2018-11-22T18:58:59.851Z,77.44
2018-11-22T19:01:27.280Z,77.27
2018-11-22T19:03:55.016Z,77.24
2018-11-22T19:06:22.575Z,77.18
2018-11-22T19:08:50.139Z,77.10
2018-11-22T19:11:17.568Z,77.16
2018-11-22T19:13:44.995Z,77.11
2018-11-22T19:16:12.439Z,76.77
2018-11-22T19:18:40.974Z,77.12
2018-11-22T19:21:08.405Z,77.48
2018-11-22T19:23:35.823Z,77.25
2018-11-22T19:26:03.273Z,77.04
2018-11-22T19:28:30.697Z,77.14
2018-11-22T19:30:58.150Z,77.41
2018-11-22T19:33:25.669Z,77.81
2018-11-22T19:35:53.103Z,77.59
2018-11-22T19:38:20.526Z,77.44
2018-11-22T19:40:48.881Z,77.24
2018-11-22T19:43:16.329Z,77.32
2018-11-22T19:45:43.737Z,77.30
2018-11-22T19:48:11.152Z,77.45
2018-11-22T19:50:38.639Z,77.55
2018-11-22T19:53:06.102Z,77.72
2018-11-22T19:55:33.586Z,77.99
2018-11-22T19:58:01.144Z,77.76
2018-11-22T20:00:28.729Z,77.75
2018-11-22T20:02:56.171Z,78.01
2018-11-22T20:05:23.611Z,78.12
2018-11-22T20:07:51.047Z,78.21
2018-11-22T20:10:18.480Z,78.20
2018-11-22T20:12:45.922Z,78.26
2018-11-22T20:15:13.337Z,78.36
2018-11-22T20:17:40.743Z,78.40
2018-11-22T20:20:08.148Z,78.76
2018-11-22T20:22:35.669Z,79.10
2018-11-22T20:25:03.152Z,78.96
2018-11-22T20:27:30.593Z,78.90
2018-11-22T20:29:58.796Z,78.95
2018-11-22T20:32:26.210Z,79.17
2018-11-22T20:34:53.717Z,79.30
2018-11-22T20:37:21.145Z,78.93
2018-11-22T20:39:48.673Z,78.59
2018-11-22T20:42:16.097Z,78.52
2018-11-22T20:44:43.635Z,78.54
2018-11-22T20:47:11.026Z,78.44
2018-11-22T20:49:38.470Z,78.36
2018-11-22T20:52:10.658Z,78.53
2018-11-22T20:54:38.071Z,78.63
2018-11-22T20:57:05.615Z,78.65
2018-11-22T20:59:33.051Z,78.64
2018-11-22T21:02:00.459Z,78.51
2018-11-22T21:04:27.897Z,78.29
2018-11-22T21:06:55.349Z,78.11
2018-11-22T21:09:22.874Z,77.97
2018-11-22T21:11:50.294Z,77.87
2018-11-22T21:14:17.701Z,78.09
2018-11-22T21:16:45.774Z,78.39
2018-11-22T21:19:13.183Z,78.37
2018-11-22T21:21:40.619Z,78.15
2018-11-22T21:24:08.080Z,77.93
2018-11-22T21:26:36.728Z,78.04
2018-11-22T21:29:04.362Z,78.29
2018-11-22T21:31:31.786Z,77.98
2018-11-22T21:33:59.263Z,77.67
2018-11-22T21:36:26.802Z,77.33
2018-11-22T21:38:54.185Z,77.26
2018-11-22T21:41:21.628Z,77.20
2018-11-22T21:43:49.077Z,77.27
2018-11-22T21:46:16.471Z,77.41
2018-11-22T21:48:43.983Z,77.41
2018-11-22T21:51:11.395Z,77.39
2018-11-22T21:53:38.803Z,77.89
2018-11-22T21:56:06.246Z,78.16
2018-11-22T21:58:33.751Z,77.97
2018-11-22T22:01:01.179Z,77.65
2018-11-22T22:03:28.618Z,77.58
2018-11-22T22:05:56.085Z,77.49
2018-11-22T22:08:23.511Z,77.29
2018-11-22T22:10:51.079Z,77.63
2018-11-22T22:13:18.564Z,77.86
2018-11-22T22:15:45.971Z,78.20
2018-11-22T22:18:13.374Z,78.28
2018-11-22T22:20:40.885Z,78.28
2018-11-22T22:23:13.222Z,78.17
2018-11-22T22:25:35.780Z,78.39
2018-11-22T22:28:03.195Z,78.40
2018-11-22T22:30:30.655Z,78.47
2018-11-22T22:32:58.088Z,78.61
2018-11-22T22:35:25.506Z,78.56
2018-11-22T22:37:52.946Z,78.50
2018-11-22T22:40:20.371Z,78.54
2018-11-22T22:42:47.848Z,78.59
2018-11-22T22:45:15.280Z,78.60
2018-11-22T22:47:42.702Z,78.49
2018-11-22T22:50:11.040Z,78.35
2018-11-22T22:52:39.225Z,78.31
2018-11-22T22:55:06.745Z,78.21
2018-11-22T22:57:34.489Z,78.06
2018-11-22T23:00:01.895Z,78.23
2018-11-22T23:02:30.036Z,78.28
2018-11-22T23:04:57.506Z,78.24
2018-11-22T23:07:25.062Z,78.14
2018-11-22T23:09:52.514Z,78.07
2018-11-22T23:12:19.923Z,78.17
2018-11-22T23:14:47.342Z,78.30
2018-11-22T23:17:15.368Z,78.22
2018-11-22T23:19:42.774Z,78.24
2018-11-22T23:22:10.198Z,78.26
2018-11-22T23:24:37.623Z,78.02
2018-11-22T23:27:05.105Z,77.99
2018-11-22T23:29:32.599Z,77.89
2018-11-22T23:32:00.236Z,77.86
2018-11-22T23:34:27.701Z,77.77
2018-11-22T23:36:55.149Z,77.68
2018-11-22T23:39:22.628Z,77.77
2018-11-22T23:41:50.083Z,77.71
2018-11-22T23:44:17.534Z,77.82
2018-11-22T23:46:44.950Z,77.59
2018-11-22T23:49:12.362Z,77.87
2018-11-22T23:51:39.806Z,77.85
2018-11-22T23:54:07.257Z,78.27
2018-11-22T23:56:34.697Z,78.30
2018-11-22T23:59:02.239Z,78.39
